Time;durP1;ratioP1;P1;durP2;ratioP2;P2;SDS_P1;SDS_P2;PMS_P1;PMS_P2;Temp;Humidity;BMP_temperature;BMP_pressure;BME280_temperature;BME280_humidity;BME280_pressure;Samples;Min_cycle;Max_cycle;Signal;HPM_P1;HPM_P2
2022/03/07 00:01:11;;;;;;;5.57;2.45;;;0.50;99.90;;;;;;5072444;28;20102;-64
2022/03/07 00:03:38;;;;;;;11.93;2.22;;;0.50;99.90;;;;;;5073614;28;20084;-65
2022/03/07 00:06:05;;;;;;;4.70;2.33;;;0.40;99.90;;;;;;5073579;28;20052;-64
2022/03/07 00:08:33;;;;;;;7.70;2.40;;;0.40;99.90;;;;;;5072486;28;20044;-63
2022/03/07 00:11:00;;;;;;;4.63;2.08;;;0.30;99.90;;;;;;5073627;28;20098;-65
2022/03/07 00:13:28;;;;;;;6.57;2.28;;;0.30;99.90;;;;;;5073776;28;20052;-64
2022/03/07 00:15:55;;;;;;;8.50;2.45;;;0.30;99.90;;;;;;5072239;28;20080;-64
2022/03/07 00:18:21;;;;;;;3.92;2.50;;;0.30;99.90;;;;;;5072629;28;20088;-63
2022/03/07 00:20:48;;;;;;;5.72;2.10;;;0.20;99.90;;;;;;5073193;28;20526;-64
2022/03/07 00:23:15;;;;;;;4.55;2.30;;;0.20;99.90;;;;;;5073670;28;20095;-63
2022/03/07 00:25:42;;;;;;;6.38;2.33;;;0.20;99.90;;;;;;5073199;28;20215;-64
2022/03/07 00:28:09;;;;;;;5.45;2.20;;;0.10;99.90;;;;;;5072293;28;20076;-63
2022/03/07 00:30:38;;;;;;;5.35;2.03;;;0.10;99.90;;;;;;5072883;28;20080;-63
2022/03/07 00:33:05;;;;;;;7.55;3.05;;;0.00;99.90;;;;;;5073058;28;20487;-64
2022/03/07 00:35:31;;;;;;;5.85;2.58;;;0.00;99.90;;;;;;5073482;28;20056;-64
2022/03/07 00:37:58;;;;;;;8.25;2.17;;;0.00;99.90;;;;;;5072988;28;20048;-64
2022/03/07 00:40:25;;;;;;;4.97;2.50;;;0.00;99.90;;;;;;5072231;28;20141;-64
2022/03/07 00:42:52;;;;;;;6.40;2.60;;;0.00;99.90;;;;;;5072157;28;20048;-65
2022/03/07 00:45:20;;;;;;;8.90;2.38;;;-0.10;99.90;;;;;;5073572;28;20452;-65
2022/03/07 00:47:49;;;;;;;10.48;2.75;;;-0.10;99.90;;;;;;5073052;28;20470;-65
2022/03/07 00:50:15;;;;;;;5.28;2.97;;;-0.10;99.90;;;;;;5072091;28;20095;-65
2022/03/07 00:52:42;;;;;;;4.32;2.45;;;-0.10;99.90;;;;;;5072653;28;20102;-64
2022/03/07 00:55:10;;;;;;;7.15;2.78;;;-0.20;99.90;;;;;;5072625;28;20500;-65
2022/03/07 00:57:37;;;;;;;4.13;2.47;;;-0.20;99.90;;;;;;5072194;28;20083;-64
2022/03/07 01:00:06;;;;;;;6.63;2.70;;;-0.20;99.90;;;;;;5071890;28;20098;-64
2022/03/07 01:02:33;;;;;;;8.45;2.47;;;-0.30;99.90;;;;;;5072463;28;20182;-64
2022/03/07 01:05:01;;;;;;;4.88;2.75;;;-0.30;99.90;;;;;;5071906;28;20052;-64
2022/03/07 01:07:28;;;;;;;7.07;2.40;;;-0.30;99.90;;;;;;5072670;28;20049;-64
2022/03/07 01:09:57;;;;;;;5.15;2.45;;;-0.30;99.90;;;;;;5071543;28;20053;-65
2022/03/07 01:12:24;;;;;;;5.03;3.20;;;-0.40;99.90;;;;;;5073632;28;20052;-65
2022/03/07 01:14:53;;;;;;;6.35;2.55;;;-0.40;99.90;;;;;;5071847;28;20079;-64
2022/03/07 01:17:23;;;;;;;5.67;2.73;;;-0.40;99.90;;;;;;5071684;28;20101;-63
2022/03/07 01:19:53;;;;;;;4.67;2.77;;;-0.50;99.90;;;;;;5071934;28;20086;-64
2022/03/07 01:22:21;;;;;;;5.35;2.58;;;-0.50;99.90;;;;;;5071999;28;20326;-64
2022/03/07 01:24:48;;;;;;;6.35;2.53;;;-0.50;99.90;;;;;;5071708;28;20052;-63
2022/03/07 01:27:15;;;;;;;4.88;2.90;;;-0.50;99.90;;;;;;5072064;28;20412;-64
2022/03/07 01:29:42;;;;;;;4.00;2.25;;;-0.60;99.90;;;;;;5071371;28;20098;-64
2022/03/07 01:32:09;;;;;;;5.82;2.65;;;-0.60;99.90;;;;;;5070951;28;20500;-64
2022/03/07 01:34:36;;;;;;;9.65;2.60;;;-0.60;99.90;;;;;;5073289;28;20052;-64
2022/03/07 01:37:03;;;;;;;4.50;2.53;;;-0.60;99.90;;;;;;5072179;28;20095;-63
2022/03/07 01:39:32;;;;;;;4.22;2.75;;;-0.60;99.90;;;;;;5071286;28;20440;-63
2022/03/07 01:41:58;;;;;;;4.47;2.83;;;-0.70;99.90;;;;;;5071667;28;20052;-63
2022/03/07 01:44:28;;;;;;;4.28;2.72;;;-0.70;99.90;;;;;;5072195;28;20407;-63
2022/03/07 01:46:56;;;;;;;7.85;3.03;;;-0.70;99.90;;;;;;5071219;28;20088;-63
2022/03/07 01:49:23;;;;;;;4.75;2.55;;;-0.70;99.90;;;;;;5071904;28;20404;-65
2022/03/07 01:51:53;;;;;;;4.97;2.72;;;-0.70;99.90;;;;;;5071930;28;20052;-63
2022/03/07 01:54:21;;;;;;;5.63;2.63;;;-0.70;99.90;;;;;;5071081;28;20053;-65
2022/03/07 01:56:50;;;;;;;7.60;2.95;;;-0.70;99.90;;;;;;5071850;28;20060;-63
2022/03/07 01:59:18;;;;;;;4.10;2.55;;;-0.70;99.90;;;;;;5071011;28;20052;-65
2022/03/07 02:01:45;;;;;;;7.93;2.85;;;-0.80;99.90;;;;;;5071253;28;20096;-64
2022/03/07 02:04:12;;;;;;;6.40;2.97;;;-0.70;99.90;;;;;;5071558;28;20496;-65
2022/03/07 02:06:40;;;;;;;5.80;2.95;;;-0.80;99.90;;;;;;5072004;28;20102;-65
2022/03/07 02:09:08;;;;;;;5.13;2.63;;;-0.80;99.90;;;;;;5071434;28;20404;-65
2022/03/07 02:11:35;;;;;;;5.75;2.65;;;-0.80;99.90;;;;;;5071338;28;20468;-64
2022/03/07 02:14:13;;;;;;;5.28;3.05;;;-0.80;99.90;;;;;;5070846;28;20079;-63
2022/03/07 02:16:40;;;;;;;7.00;2.75;;;-0.80;99.90;;;;;;5070964;28;20062;-65
2022/03/07 02:19:07;;;;;;;6.72;2.97;;;-0.90;99.90;;;;;;5071390;28;20052;-65
2022/03/07 02:21:35;;;;;;;7.38;2.80;;;-0.90;99.90;;;;;;5071933;28;20445;-64
2022/03/07 02:24:04;;;;;;;7.22;2.80;;;-0.90;99.90;;;;;;5072404;28;20102;-64
2022/03/07 02:26:32;;;;;;;4.30;2.72;;;-0.90;99.90;;;;;;5071094;28;20131;-63
2022/03/07 02:28:59;;;;;;;7.07;3.85;;;-1.00;99.90;;;;;;5070822;28;20085;-64
2022/03/07 02:31:26;;;;;;;6.75;3.25;;;-1.00;99.90;;;;;;5071438;28;20060;-63
2022/03/07 02:33:53;;;;;;;4.60;2.70;;;-1.00;99.90;;;;;;5071317;28;20056;-63
2022/03/07 02:36:20;;;;;;;7.22;3.10;;;-1.00;99.90;;;;;;5070862;28;20440;-64
2022/03/07 02:38:46;;;;;;;4.28;2.92;;;-1.00;99.90;;;;;;5071221;28;20048;-64
2022/03/07 02:41:15;;;;;;;5.28;2.67;;;-1.00;99.90;;;;;;5070730;28;20044;-63
2022/03/07 02:43:43;;;;;;;5.60;3.10;;;-1.00;99.90;;;;;;5074954;28;20526;-63
2022/03/07 02:46:09;;;;;;;10.00;4.07;;;-1.00;99.90;;;;;;5074913;28;20086;-64
2022/03/07 02:48:36;;;;;;;6.05;2.85;;;-1.00;99.90;;;;;;5074568;28;20126;-63
2022/03/07 02:51:04;;;;;;;6.00;3.05;;;-1.10;99.90;;;;;;5074715;28;20496;-64
2022/03/07 02:53:30;;;;;;;5.80;3.35;;;-1.10;99.90;;;;;;5076116;28;20131;-64
2022/03/07 02:55:57;;;;;;;9.00;3.60;;;-1.10;99.90;;;;;;5073931;28;20131;-64
2022/03/07 02:58:25;;;;;;;7.53;3.65;;;-1.10;99.90;;;;;;5075893;28;20083;-64
2022/03/07 03:00:52;;;;;;;6.45;3.13;;;-1.20;99.90;;;;;;5074244;28;20044;-63
2022/03/07 03:03:19;;;;;;;5.20;2.92;;;-1.20;99.90;;;;;;5074079;28;20117;-64
2022/03/07 03:05:46;;;;;;;4.38;2.70;;;-1.20;99.90;;;;;;5074872;28;20132;-64
2022/03/07 03:08:13;;;;;;;12.02;3.30;;;-1.20;99.90;;;;;;5074535;28;20508;-64
2022/03/07 03:10:40;;;;;;;4.68;2.80;;;-1.20;99.90;;;;;;5074039;28;20084;-63
2022/03/07 03:13:06;;;;;;;4.20;2.60;;;-1.30;99.90;;;;;;5074785;28;20133;-64
2022/03/07 03:15:35;;;;;;;3.85;2.58;;;-1.30;99.90;;;;;;5074915;28;20058;-63
2022/03/07 03:18:01;;;;;;;6.30;3.10;;;-1.30;99.90;;;;;;5073822;28;20079;-63
2022/03/07 03:20:28;;;;;;;5.07;2.88;;;-1.30;99.90;;;;;;5074667;28;20044;-65
2022/03/07 03:22:55;;;;;;;5.88;2.97;;;-1.30;99.90;;;;;;5074222;28;20045;-64
2022/03/07 03:25:22;;;;;;;6.15;3.20;;;-1.40;99.90;;;;;;5073905;28;20052;-64
2022/03/07 03:27:49;;;;;;;5.40;2.97;;;-1.40;99.90;;;;;;5074462;28;20053;-63
2022/03/07 03:30:15;;;;;;;5.05;2.97;;;-1.40;99.90;;;;;;5074494;28;20083;-64
2022/03/07 03:32:44;;;;;;;5.97;2.90;;;-1.40;99.90;;;;;;5075066;28;20468;-64
2022/03/07 03:35:11;;;;;;;5.57;3.10;;;-1.40;99.90;;;;;;5074520;28;20048;-63
2022/03/07 03:37:38;;;;;;;5.55;2.72;;;-1.50;99.90;;;;;;5073516;28;20084;-64
2022/03/07 03:40:07;;;;;;;4.60;2.95;;;-1.50;99.90;;;;;;5073925;28;20092;-63
2022/03/07 03:42:34;;;;;;;8.35;3.40;;;-1.50;99.90;;;;;;5074419;28;20404;-64
2022/03/07 03:45:01;;;;;;;5.70;3.22;;;-1.50;99.90;;;;;;5073103;28;20135;-64
2022/03/07 03:47:28;;;;;;;5.10;2.80;;;-1.50;99.90;;;;;;5073970;28;20087;-64
2022/03/07 03:49:56;;;;;;;8.32;3.15;;;-1.50;99.90;;;;;;5073892;28;20056;-64
2022/03/07 03:52:23;;;;;;;7.00;3.10;;;-1.50;99.90;;;;;;5074396;28;20059;-64
2022/03/07 03:54:50;;;;;;;5.75;2.72;;;-1.50;99.90;;;;;;5072790;28;20060;-65
2022/03/07 03:57:17;;;;;;;11.68;3.65;;;-1.50;99.90;;;;;;5073987;28;20053;-64
2022/03/07 03:59:44;;;;;;;3.67;2.55;;;-1.60;99.90;;;;;;5072878;28;20500;-64
2022/03/07 04:02:10;;;;;;;6.10;2.70;;;-1.60;99.90;;;;;;5073401;28;20088;-64
2022/03/07 04:04:37;;;;;;;5.82;3.60;;;-1.60;99.90;;;;;;5073962;28;20052;-63
2022/03/07 04:07:06;;;;;;;7.25;3.08;;;-1.60;99.90;;;;;;5073067;28;20129;-62
2022/03/07 04:09:33;;;;;;;4.90;4.15;;;-1.60;99.90;;;;;;5073162;28;20500;-63
2022/03/07 04:12:00;;;;;;;5.45;3.13;;;-1.60;99.90;;;;;;5073166;28;20123;-63
2022/03/07 04:14:26;;;;;;;6.15;3.58;;;-1.60;99.90;;;;;;5073117;28;20135;-63
2022/03/07 04:16:53;;;;;;;6.03;3.30;;;-1.60;99.90;;;;;;5075014;28;20079;-63
2022/03/07 04:19:23;;;;;;;9.68;3.58;;;-1.70;99.90;;;;;;5073501;28;20097;-62
2022/03/07 04:21:51;;;;;;;4.82;3.05;;;-1.70;99.90;;;;;;5072598;28;20095;-64
2022/03/07 04:24:20;;;;;;;4.63;3.40;;;-1.70;99.90;;;;;;5073160;28;20044;-63
2022/03/07 04:26:47;;;;;;;8.63;3.67;;;-1.70;99.90;;;;;;5072413;28;20060;-63
2022/03/07 04:29:14;;;;;;;6.28;3.10;;;-1.70;99.90;;;;;;5073270;28;20135;-62
2022/03/07 04:31:43;;;;;;;5.38;3.25;;;-1.80;99.90;;;;;;5073200;28;20048;-64
2022/03/07 04:34:12;;;;;;;7.47;3.67;;;-1.80;99.90;;;;;;5072506;28;20053;-63
2022/03/07 04:36:40;;;;;;;6.53;3.05;;;-1.80;99.90;;;;;;5072890;28;20048;-64
2022/03/07 04:39:09;;;;;;;5.88;3.47;;;-1.80;99.90;;;;;;5073924;28;20048;-63
2022/03/07 04:41:39;;;;;;;4.70;3.03;;;-1.80;99.90;;;;;;5071976;28;20072;-63
2022/03/07 04:44:07;;;;;;;3.75;2.80;;;-1.80;99.90;;;;;;5072767;28;20061;-63
2022/03/07 04:46:34;;;;;;;9.02;2.97;;;-1.80;99.90;;;;;;5074077;28;20051;-63
2022/03/07 04:49:01;;;;;;;6.10;3.20;;;-1.80;99.90;;;;;;5072184;28;20160;-64
2022/03/07 04:51:28;;;;;;;8.60;3.60;;;-1.80;99.90;;;;;;5072781;28;20131;-63
2022/03/07 04:53:55;;;;;;;7.80;3.45;;;-1.80;99.90;;;;;;5072509;28;20052;-63
2022/03/07 04:56:22;;;;;;;6.57;3.70;;;-1.80;99.90;;;;;;5073221;28;20460;-64
2022/03/07 04:58:53;;;;;;;7.03;3.83;;;-1.80;99.90;;;;;;5072534;28;20088;-63
2022/03/07 05:01:21;;;;;;;5.75;3.53;;;-1.90;99.90;;;;;;5072449;28;20547;-63
2022/03/07 05:03:48;;;;;;;8.20;3.20;;;-1.90;99.90;;;;;;5072806;28;20522;-63
2022/03/07 05:06:16;;;;;;;5.95;3.67;;;-1.90;99.90;;;;;;5072050;28;20056;-64
2022/03/07 05:08:42;;;;;;;8.57;4.07;;;-1.90;99.90;;;;;;5072049;28;20139;-64
2022/03/07 05:11:09;;;;;;;5.82;3.10;;;-1.90;99.90;;;;;;5071720;28;20068;-64
2022/03/07 05:13:36;;;;;;;5.72;3.30;;;-1.90;99.90;;;;;;5072009;28;20102;-63
2022/03/07 05:16:05;;;;;;;4.68;2.88;;;-1.10;99.90;;;;;;5071548;28;20371;-65
2022/03/07 05:18:32;;;;;;;9.55;3.30;;;-2.00;99.90;;;;;;5072080;28;20049;-65
2022/03/07 05:20:59;;;;;;;4.13;3.00;;;-1.90;99.90;;;;;;5072379;28;20404;-65
2022/03/07 05:23:26;;;;;;;6.15;3.25;;;-1.90;99.90;;;;;;5071611;28;20052;-64
2022/03/07 05:25:53;;;;;;;5.53;3.22;;;-2.00;99.90;;;;;;5071974;28;20139;-64
2022/03/07 05:28:23;;;;;;;14.43;3.42;;;-2.00;99.90;;;;;;5072173;28;20056;-64
2022/03/07 05:30:50;;;;;;;7.93;3.60;;;-2.00;99.90;;;;;;5071452;28;20095;-63
2022/03/07 05:33:18;;;;;;;6.75;3.70;;;-2.00;99.90;;;;;;5072049;28;20488;-64
2022/03/07 05:35:45;;;;;;;6.05;3.50;;;-2.00;99.90;;;;;;5071807;28;20132;-62
2022/03/07 05:38:12;;;;;;;5.40;3.55;;;-2.00;99.90;;;;;;5071420;28;20052;-63
2022/03/07 05:40:38;;;;;;;6.82;3.85;;;-2.00;99.90;;;;;;5071561;28;20083;-62
2022/03/07 05:43:05;;;;;;;8.45;4.18;;;-2.10;99.90;;;;;;5069104;28;20060;-63
2022/03/07 05:45:32;;;;;;;6.95;3.53;;;-2.00;99.90;;;;;;5052365;28;20473;-63
2022/03/07 05:47:59;;;;;;;5.25;3.20;;;-2.10;99.90;;;;;;5059876;28;20080;-64
2022/03/07 05:50:27;;;;;;;5.72;3.50;;;-2.00;99.90;;;;;;5062757;28;20095;-63
2022/03/07 05:52:54;;;;;;;7.60;3.83;;;-2.00;99.90;;;;;;5065105;28;20049;-63
2022/03/07 05:55:24;;;;;;;16.10;4.28;;;-2.00;99.90;;;;;;5049694;28;20133;-63
2022/03/07 05:57:59;;;;;;;8.93;3.60;;;-1.90;99.90;;;;;;5060356;28;20752;-62
2022/03/07 06:00:27;;;;;;;9.15;5.07;;;-2.00;99.90;;;;;;5063536;28;20058;-64
2022/03/07 06:02:54;;;;;;;6.75;3.47;;;-1.80;99.90;;;;;;5062978;28;20463;-64
2022/03/07 06:05:21;;;;;;;9.75;4.15;;;-0.90;99.90;;;;;;5066432;28;20049;-63
2022/03/07 06:07:49;;;;;;;6.18;3.60;;;-1.90;99.90;;;;;;5063788;28;20076;-63
2022/03/07 06:10:16;;;;;;;7.75;4.05;;;-1.90;99.90;;;;;;5063194;28;20479;-63
2022/03/07 06:12:43;;;;;;;6.85;3.80;;;-1.90;99.90;;;;;;5067155;28;20452;-64
2022/03/07 06:15:10;;;;;;;8.80;3.95;;;-1.90;99.90;;;;;;5065076;28;20076;-62
2022/03/07 06:17:36;;;;;;;11.00;4.22;;;-2.00;99.90;;;;;;5070930;28;20091;-64
2022/03/07 06:20:05;;;;;;;5.68;3.95;;;-2.00;99.90;;;;;;5070621;28;20084;-64
2022/03/07 06:22:31;;;;;;;6.25;3.60;;;-1.90;99.90;;;;;;5070701;28;20083;-65
2022/03/07 06:25:00;;;;;;;6.32;3.30;;;-2.00;99.90;;;;;;5071006;28;20099;-64
2022/03/07 06:27:26;;;;;;;7.72;4.10;;;-1.90;99.90;;;;;;5070459;28;20092;-66
2022/03/07 06:29:53;;;;;;;6.25;3.88;;;-1.90;99.90;;;;;;5070990;28;20045;-65
2022/03/07 06:32:24;;;;;;;5.93;3.53;;;-1.90;99.90;;;;;;5066624;28;20049;-64
2022/03/07 06:34:51;;;;;;;12.98;4.35;;;-1.70;99.90;;;;;;5065680;28;20063;-66
2022/03/07 06:37:18;;;;;;;7.47;3.28;;;-1.90;99.90;;;;;;5064345;28;20049;-64
2022/03/07 06:39:45;;;;;;;7.68;3.53;;;-1.80;99.90;;;;;;5066891;28;20056;-64
2022/03/07 06:42:13;;;;;;;5.35;3.35;;;-1.80;99.90;;;;;;5064987;28;20525;-62
2022/03/07 06:44:40;;;;;;;5.95;3.40;;;-1.70;99.90;;;;;;5067865;28;20080;-65
2022/03/07 06:47:08;;;;;;;3.58;3.05;;;-1.60;99.90;;;;;;5069184;28;20451;-64
2022/03/07 06:49:35;;;;;;;5.80;3.00;;;-1.60;99.90;;;;;;5067544;28;20076;-65
2022/03/07 06:52:03;;;;;;;5.07;3.17;;;-1.60;99.90;;;;;;5067691;28;20131;-64
2022/03/07 06:54:29;;;;;;;6.43;3.25;;;-1.50;99.90;;;;;;5070379;28;20033;-64
2022/03/07 06:56:56;;;;;;;5.38;3.75;;;-1.50;99.90;;;;;;5065946;28;20133;-66
2022/03/07 06:59:25;;;;;;;5.65;3.80;;;-1.40;99.90;;;;;;5069941;28;20048;-64
2022/03/07 07:01:52;;;;;;;6.93;4.43;;;-1.40;99.90;;;;;;5064887;28;20068;-64
2022/03/07 07:04:19;;;;;;;5.40;3.88;;;-1.30;99.90;;;;;;5063021;28;20053;-64
2022/03/07 07:06:45;;;;;;;8.02;4.32;;;-1.20;99.90;;;;;;5064435;28;20052;-63
2022/03/07 07:09:12;;;;;;;10.02;4.10;;;-1.10;99.90;;;;;;5062198;28;20048;-64
2022/03/07 07:11:39;;;;;;;9.95;5.00;;;-1.00;99.90;;;;;;5063284;28;20045;-63
2022/03/07 07:14:06;;;;;;;7.07;4.30;;;-0.80;99.90;;;;;;5070861;28;20041;-64
2022/03/07 07:16:34;;;;;;;8.82;4.60;;;-0.50;99.90;;;;;;5066298;28;20473;-64
2022/03/07 07:19:01;;;;;;;11.30;4.43;;;0.10;99.90;;;;;;5064577;28;20537;-64
2022/03/07 07:21:28;;;;;;;17.48;11.05;;;0.70;99.90;;;;;;5062795;28;20049;-64
2022/03/07 07:23:55;;;;;;;20.58;12.15;;;1.50;99.90;;;;;;5061866;28;20472;-64
2022/03/07 07:26:21;;;;;;;14.10;9.18;;;2.60;99.90;;;;;;5065203;28;20083;-64
2022/03/07 07:28:48;;;;;;;11.73;7.60;;;3.80;99.90;;;;;;5066232;28;20088;-65
2022/03/07 07:31:15;;;;;;;8.77;7.43;;;5.00;99.90;;;;;;5067001;28;20083;-65
2022/03/07 07:33:44;;;;;;;7.18;5.60;;;6.10;99.90;;;;;;5063208;28;20053;-65
2022/03/07 07:36:10;;;;;;;7.82;4.75;;;7.10;99.90;;;;;;5059634;28;20055;-67
2022/03/07 07:38:37;;;;;;;6.25;3.97;;;7.90;99.90;;;;;;5052954;28;20079;-63
2022/03/07 07:41:04;;;;;;;11.77;4.50;;;8.80;99.90;;;;;;5053108;28;20049;-65
2022/03/07 07:43:31;;;;;;;9.30;4.43;;;9.20;99.90;;;;;;5068906;28;20045;-64
2022/03/07 07:45:58;;;;;;;7.82;3.78;;;9.70;99.90;;;;;;5067770;28;20106;-63
2022/03/07 07:48:24;;;;;;;5.57;4.20;;;9.90;99.90;;;;;;5058967;28;20472;-63
2022/03/07 07:50:53;;;;;;;14.30;3.95;;;9.80;99.90;;;;;;5051924;28;20095;-65
2022/03/07 07:53:19;;;;;;;4.95;3.13;;;10.10;99.90;;;;;;5053227;28;20076;-64
2022/03/07 07:55:46;;;;;;;5.93;2.85;;;10.50;99.90;;;;;;5053217;28;20045;-64
2022/03/07 07:58:13;;;;;;;8.13;3.17;;;11.00;99.90;;;;;;5051757;28;20053;-64
2022/03/07 08:00:40;;;;;;;6.13;3.10;;;12.10;99.90;;;;;;5068294;28;20512;-65
2022/03/07 08:03:08;;;;;;;9.05;3.65;;;11.90;97.20;;;;;;5065560;28;20094;-63
2022/03/07 08:05:35;;;;;;;7.22;2.97;;;12.00;98.00;;;;;;5052015;28;20057;-65
2022/03/07 08:08:03;;;;;;;6.05;2.65;;;11.80;95.10;;;;;;5052679;28;20081;-65
2022/03/07 08:10:30;;;;;;;5.75;2.97;;;12.40;95.40;;;;;;5052159;28;20102;-66
2022/03/07 08:12:57;;;;;;;10.43;2.70;;;12.20;95.90;;;;;;5051825;28;20079;-64
2022/03/07 08:15:24;;;;;;;7.05;2.35;;;12.30;94.60;;;;;;5061778;28;20060;-65
2022/03/07 08:17:51;;;;;;;5.80;2.92;;;12.30;92.90;;;;;;5056074;28;20049;-66
2022/03/07 08:20:22;;;;;;;5.65;2.50;;;12.60;94.60;;;;;;5051424;28;20101;-65
2022/03/07 08:22:49;;;;;;;7.63;2.72;;;12.80;94.30;;;;;;5052670;28;20045;-64
2022/03/07 08:25:18;;;;;;;7.82;2.58;;;12.60;93.50;;;;;;5070439;28;20131;-65
2022/03/07 08:27:45;;;;;;;11.18;3.03;;;12.50;93.00;;;;;;5055647;28;20128;-66
2022/03/07 08:30:14;;;;;;;6.38;2.38;;;12.80;94.00;;;;;;5052896;28;20081;-66
2022/03/07 08:32:41;;;;;;;4.47;2.33;;;13.50;92.80;;;;;;5072180;28;20129;-66
2022/03/07 08:35:11;;;;;;;5.68;2.63;;;14.10;93.60;;;;;;5051768;28;20558;-65
2022/03/07 08:37:39;;;;;;;6.80;2.80;;;14.20;90.50;;;;;;5051855;28;20057;-65
2022/03/07 08:40:08;;;;;;;6.55;2.42;;;13.70;90.10;;;;;;5049984;28;20048;-65
2022/03/07 08:42:36;;;;;;;6.32;2.97;;;13.90;90.20;;;;;;5053439;28;20084;-65
2022/03/07 08:45:03;;;;;;;7.20;2.67;;;14.20;90.30;;;;;;5060539;28;20053;-65
2022/03/07 08:47:30;;;;;;;8.88;3.22;;;14.00;87.50;;;;;;5070976;28;20064;-65
2022/03/07 08:49:57;;;;;;;8.13;3.10;;;14.20;90.10;;;;;;5070945;28;20048;-65
2022/03/07 08:52:23;;;;;;;11.38;3.28;;;14.20;88.50;;;;;;5072083;28;20059;-65
2022/03/07 08:54:50;;;;;;;5.85;2.40;;;14.20;87.50;;;;;;5072253;28;20049;-65
2022/03/07 08:57:17;;;;;;;6.13;2.17;;;14.20;88.70;;;;;;5072806;28;20087;-65
2022/03/07 08:59:45;;;;;;;4.88;2.10;;;14.80;87.90;;;;;;5072525;28;20044;-65
2022/03/07 09:02:12;;;;;;;6.70;2.95;;;14.80;84.80;;;;;;5071474;28;20053;-64
2022/03/07 09:04:40;;;;;;;6.18;2.35;;;15.20;86.90;;;;;;5072625;28;20484;-66
2022/03/07 09:07:07;;;;;;;5.70;2.08;;;15.80;83.60;;;;;;5073666;28;20419;-65
2022/03/07 09:09:34;;;;;;;4.93;2.10;;;15.70;81.30;;;;;;5071685;28;20492;-65
2022/03/07 09:12:02;;;;;;;5.50;2.35;;;16.20;84.20;;;;;;5072355;28;20059;-66
2022/03/07 09:14:29;;;;;;;6.38;1.98;;;16.60;79.50;;;;;;5073623;28;20044;-66
2022/03/07 09:16:58;;;;;;;5.15;2.15;;;17.10;80.80;;;;;;5071803;28;20126;-66
2022/03/07 09:19:25;;;;;;;4.75;2.22;;;17.60;77.20;;;;;;5072405;28;20048;-66
2022/03/07 09:21:52;;;;;;;6.45;2.50;;;17.90;72.80;;;;;;5071934;28;20102;-66
2022/03/07 09:24:20;;;;;;;5.28;2.15;;;18.50;75.00;;;;;;5060405;28;20088;-65
2022/03/07 09:26:48;;;;;;;5.18;2.20;;;18.20;74.40;;;;;;5071848;28;20568;-65
2022/03/07 09:29:15;;;;;;;9.10;2.50;;;18.70;71.40;;;;;;5071835;28;20049;-65
2022/03/07 09:31:42;;;;;;;5.10;2.03;;;18.50;72.30;;;;;;5071541;28;20140;-65
2022/03/07 09:34:12;;;;;;;5.45;1.98;;;18.40;70.00;;;;;;5071554;28;20056;-65
2022/03/07 09:36:39;;;;;;;;;;;18.40;69.20;;;;;;5055004;28;20467;-65
2022/03/07 09:39:06;;;;;;;5.15;2.55;;;18.50;69.50;;;;;;5065073;28;19967;-65
2022/03/07 09:41:33;;;;;;;2.97;1.60;;;18.40;70.60;;;;;;5072535;28;20076;-66
2022/03/07 09:44:00;;;;;;;5.55;1.83;;;18.10;69.60;;;;;;5070820;28;20075;-65
2022/03/07 09:46:27;;;;;;;5.60;1.88;;;18.30;70.40;;;;;;5072928;28;20117;-64
2022/03/07 09:48:54;;;;;;;6.55;1.83;;;18.20;70.90;;;;;;5071250;28;20088;-65
2022/03/07 09:51:23;;;;;;;6.25;1.73;;;18.20;70.90;;;;;;5071843;28;20072;-66
2022/03/07 09:53:50;;;;;;;5.35;1.65;;;18.40;68.60;;;;;;5071466;28;20090;-65
2022/03/07 09:56:17;;;;;;;5.10;1.58;;;18.10;71.00;;;;;;5072583;28;20450;-65
2022/03/07 09:58:45;;;;;;;3.78;1.50;;;18.60;68.10;;;;;;5072459;28;20072;-66
2022/03/07 10:01:14;;;;;;;6.90;1.92;;;18.60;69.30;;;;;;5105205;28;20055;-65
2022/03/07 10:03:41;;;;;;;4.88;2.00;;;19.00;69.90;;;;;;5072809;28;20052;-65
2022/03/07 10:06:13;;;;;;;4.55;1.85;;;19.70;69.40;;;;;;5070933;28;20496;-66
2022/03/07 10:08:52;;;;;;;3.88;1.42;;;19.80;67.90;;;;;;5071784;28;20381;-65
2022/03/07 10:11:19;;;;;;;3.40;1.25;;;20.10;66.60;;;;;;5072912;28;20084;-65
2022/03/07 10:13:50;;;;;;;3.45;1.15;;;19.70;67.20;;;;;;5072333;28;20466;-65
2022/03/07 10:16:17;;;;;;;4.10;1.30;;;19.40;67.90;;;;;;5072441;28;20064;-67
2022/03/07 10:18:49;;;;;;;3.65;1.38;;;18.60;68.40;;;;;;5070928;28;20764;-65
2022/03/07 10:21:22;;;;;;;5.60;1.48;;;19.20;68.30;;;;;;5071426;28;20064;-66
2022/03/07 10:23:53;;;;;;;5.57;1.30;;;19.60;67.30;;;;;;5071533;28;20053;-65
2022/03/07 10:26:20;;;;;;;4.60;1.10;;;20.00;66.30;;;;;;5070872;28;20098;-65
2022/03/07 10:28:53;;;;;;;3.10;1.35;;;20.10;65.80;;;;;;5071784;28;20060;-65
2022/03/07 10:31:20;;;;;;;3.33;1.38;;;19.90;64.90;;;;;;5072805;28;20053;-65
2022/03/07 10:33:48;;;;;;;3.33;1.20;;;20.60;65.10;;;;;;5062486;28;20119;-67
2022/03/07 10:36:15;;;;;;;5.18;1.50;;;20.90;63.30;;;;;;5051513;28;20574;-65
2022/03/07 10:38:44;;;;;;;3.65;1.10;;;21.00;62.80;;;;;;5068663;28;20133;-65
2022/03/07 10:41:12;;;;;;;3.58;1.17;;;20.00;63.50;;;;;;5057338;28;20140;-65
2022/03/07 10:43:49;;;;;;;5.40;1.40;;;18.70;65.30;;;;;;5049104;28;20128;-64
2022/03/07 10:46:25;;;;;;;6.93;1.83;;;17.70;66.40;;;;;;5053444;28;20119;-65
2022/03/07 10:48:52;;;;;;;4.05;1.63;;;17.60;69.10;;;;;;5064314;28;20057;-66
2022/03/07 10:51:20;;;;;;;5.68;1.80;;;18.20;68.00;;;;;;5066101;28;20083;-65
2022/03/07 10:53:48;;;;;;;4.28;1.13;;;18.60;67.20;;;;;;5062113;28;20056;-65
2022/03/07 10:56:18;;;;;;;3.50;1.40;;;19.30;67.70;;;;;;5051269;28;20128;-64
2022/03/07 10:58:49;;;;;;;3.95;1.55;;;20.00;65.00;;;;;;5059104;28;20048;-65
2022/03/07 11:01:26;;;;;;;2.78;1.33;;;20.50;63.20;;;;;;5058721;28;20083;-65
2022/03/07 11:03:52;;;;;;;5.15;1.20;;;20.60;63.50;;;;;;5062980;28;20075;-66
2022/03/07 11:06:19;;;;;;;5.47;1.67;;;20.70;62.50;;;;;;5052834;28;20080;-65
2022/03/07 11:08:46;;;;;;;5.57;1.60;;;20.70;60.60;;;;;;5060341;28;20080;-65
2022/03/07 11:11:14;;;;;;;9.18;2.45;;;20.70;61.60;;;;;;5056473;28;20072;-65
2022/03/07 11:13:44;;;;;;;4.32;1.42;;;20.40;60.70;;;;;;5057014;28;20115;-65
2022/03/07 11:16:13;;;;;;;4.35;1.48;;;20.10;61.60;;;;;;5056192;28;20091;-64
2022/03/07 11:18:41;;;;;;;3.70;1.50;;;19.50;59.50;;;;;;5057864;28;20404;-65
2022/03/07 11:21:08;;;;;;;3.45;2.00;;;19.70;58.80;;;;;;5058314;28;20145;-63
2022/03/07 11:23:37;;;;;;;3.17;1.60;;;19.70;58.70;;;;;;5060780;28;20075;-65
2022/03/07 11:26:06;;;;;;;4.03;1.50;;;19.30;58.80;;;;;;5056989;28;20057;-66
2022/03/07 11:28:36;;;;;;;4.00;1.38;;;19.10;58.20;;;;;;5053618;28;20556;-64
2022/03/07 11:31:05;;;;;;;3.72;1.52;;;19.20;58.90;;;;;;5053278;28;20536;-65
2022/03/07 11:33:37;;;;;;;2.83;1.27;;;19.50;58.40;;;;;;5053113;28;20080;-65
2022/03/07 11:36:05;;;;;;;3.22;1.63;;;19.10;57.80;;;;;;5051777;28;20051;-65
2022/03/07 11:38:33;;;;;;;5.47;1.17;;;19.60;58.90;;;;;;5052808;28;20083;-65
2022/03/07 11:41:02;;;;;;;3.65;1.45;;;19.50;57.80;;;;;;5066727;28;20068;-65
2022/03/07 11:43:31;;;;;;;2.10;1.37;;;19.00;56.80;;;;;;5061153;28;20140;-65
2022/03/07 11:46:01;;;;;;;2.85;1.35;;;17.70;58.50;;;;;;5052457;28;20715;-65
2022/03/07 11:48:42;;;;;;;2.65;1.27;;;17.00;60.00;;;;;;5064772;28;20404;-64
2022/03/07 11:51:17;;;;;;;3.45;1.63;;;17.40;60.80;;;;;;5070725;28;20139;-65
2022/03/07 11:53:44;;;;;;;4.30;1.55;;;16.60;60.40;;;;;;5056242;28;20067;-65
2022/03/07 11:56:17;;;;;;;7.78;1.65;;;16.80;61.80;;;;;;5055318;28;20055;-66
2022/03/07 11:58:53;;;;;;;3.88;1.20;;;16.60;61.30;;;;;;5059809;28;20076;-65
2022/03/07 12:01:22;;;;;;;2.70;0.90;;;17.30;58.60;;;;;;5052990;28;20049;-64
2022/03/07 12:03:54;;;;;;;2.42;0.90;;;18.40;55.60;;;;;;5072300;28;20052;-65
2022/03/07 12:06:23;;;;;;;2.55;0.88;;;18.20;54.10;;;;;;5053873;28;20130;-65
2022/03/07 12:08:52;;;;;;;2.20;0.87;;;18.10;55.00;;;;;;5053841;28;20053;-65
2022/03/07 12:11:29;;;;;;;2.58;1.10;;;17.60;55.60;;;;;;5053676;28;20044;-65
2022/03/07 12:14:02;;;;;;;1.45;0.75;;;16.60;57.50;;;;;;5064163;28;20750;-65
2022/03/07 12:16:31;;;;;;;3.78;1.02;;;15.50;57.80;;;;;;5056620;28;20438;-65
2022/03/07 12:19:09;;;;;;;2.75;0.90;;;15.00;59.20;;;;;;5055797;28;20122;-65
2022/03/07 12:21:37;;;;;;;2.28;1.15;;;15.40;59.60;;;;;;5053413;28;20080;-65
2022/03/07 12:24:06;;;;;;;2.03;1.10;;;16.60;58.80;;;;;;5051626;28;20076;-65
2022/03/07 12:26:33;;;;;;;4.88;0.90;;;17.60;54.70;;;;;;5051157;28;20084;-64
2022/03/07 12:28:59;;;;;;;2.22;1.00;;;18.80;54.40;;;;;;5059990;28;20071;-63
2022/03/07 12:31:27;;;;;;;3.25;1.40;;;19.00;54.10;;;;;;5062114;28;20488;-65
2022/03/07 12:33:53;;;;;;;1.50;1.02;;;19.10;54.30;;;;;;5057506;28;20132;-65
2022/03/07 12:36:25;;;;;;;3.67;1.13;;;19.10;55.00;;;;;;5050873;28;20136;-65
2022/03/07 12:38:53;;;;;;;2.70;1.23;;;19.50;54.60;;;;;;5055200;28;20574;-64
2022/03/07 12:41:27;;;;;;;2.22;1.30;;;18.70;54.50;;;;;;5050859;28;20557;-64
2022/03/07 12:43:54;;;;;;;3.95;1.10;;;18.70;55.30;;;;;;5052670;28;20568;-65
2022/03/07 12:46:22;;;;;;;3.38;1.10;;;18.90;54.90;;;;;;5051538;28;20076;-66
2022/03/07 12:48:49;;;;;;;4.40;1.00;;;19.70;54.20;;;;;;5051569;28;20481;-64
2022/03/07 12:51:17;;;;;;;2.10;0.95;;;19.20;54.00;;;;;;5061178;28;20124;-65